sensor_id;sensor_type;location;lat;lon;timestamp;P1;durP1;ratioP1;P2;durP2;ratioP2
19525;SDS011;9907;42.676;26.348;2022-11-20T00:02:24;10.67;;;4.87;;
19525;SDS011;9907;42.676;26.348;2022-11-20T00:04:49;11.07;;;5.07;;
19525;SDS011;9907;42.676;26.348;2022-11-20T00:07:15;12.27;;;4.93;;
19525;SDS011;9907;42.676;26.348;2022-11-20T00:09:40;12.53;;;5.37;;
19525;SDS011;9907;42.676;26.348;2022-11-20T00:12:05;12.80;;;4.60;;
19525;SDS011;9907;42.676;26.348;2022-11-20T00:14:31;12.67;;;4.40;;
19525;SDS011;9907;42.676;26.348;2022-11-20T00:16:56;10.43;;;4.87;;
19525;SDS011;9907;42.676;26.348;2022-11-20T00:19:22;10.60;;;4.87;;
19525;SDS011;9907;42.676;26.348;2022-11-20T00:21:47;11.33;;;4.67;;
19525;SDS011;9907;42.676;26.348;2022-11-20T00:24:16;14.03;;;5.10;;
19525;SDS011;9907;42.676;26.348;2022-11-20T00:26:41;10.67;;;4.27;;
19525;SDS011;9907;42.676;26.348;2022-11-20T00:29:08;10.50;;;5.03;;
19525;SDS011;9907;42.676;26.348;2022-11-20T00:31:35;14.30;;;4.70;;
19525;SDS011;9907;42.676;26.348;2022-11-20T00:34:00;15.13;;;5.47;;
19525;SDS011;9907;42.676;26.348;2022-11-20T00:36:27;11.30;;;4.70;;
19525;SDS011;9907;42.676;26.348;2022-11-20T00:38:54;11.93;;;4.27;;
19525;SDS011;9907;42.676;26.348;2022-11-20T00:41:21;12.90;;;4.87;;
19525;SDS011;9907;42.676;26.348;2022-11-20T00:43:46;12.33;;;4.97;;
19525;SDS011;9907;42.676;26.348;2022-11-20T00:46:13;12.37;;;4.90;;
19525;SDS011;9907;42.676;26.348;2022-11-20T00:48:40;12.83;;;5.07;;
19525;SDS011;9907;42.676;26.348;2022-11-20T00:51:06;13.60;;;5.43;;
19525;SDS011;9907;42.676;26.348;2022-11-20T00:53:31;8.83;;;4.20;;
19525;SDS011;9907;42.676;26.348;2022-11-20T00:56:01;14.37;;;5.47;;
19525;SDS011;9907;42.676;26.348;2022-11-20T00:58:30;13.37;;;5.90;;
19525;SDS011;9907;42.676;26.348;2022-11-20T01:01:00;12.77;;;5.83;;
19525;SDS011;9907;42.676;26.348;2022-11-20T01:03:38;12.43;;;5.03;;
19525;SDS011;9907;42.676;26.348;2022-11-20T01:06:06;12.13;;;5.53;;
19525;SDS011;9907;42.676;26.348;2022-11-20T01:08:34;14.43;;;5.30;;
19525;SDS011;9907;42.676;26.348;2022-11-20T01:11:05;13.10;;;4.90;;
19525;SDS011;9907;42.676;26.348;2022-11-20T01:13:32;15.27;;;4.67;;
19525;SDS011;9907;42.676;26.348;2022-11-20T01:18:40;9.93;;;5.27;;
19525;SDS011;9907;42.676;26.348;2022-11-20T01:21:09;14.07;;;4.70;;
19525;SDS011;9907;42.676;26.348;2022-11-20T01:23:37;13.37;;;4.57;;
19525;SDS011;9907;42.676;26.348;2022-11-20T01:26:06;11.57;;;4.30;;
19525;SDS011;9907;42.676;26.348;2022-11-20T01:28:36;10.53;;;4.83;;
19525;SDS011;9907;42.676;26.348;2022-11-20T01:31:10;14.37;;;4.30;;
19525;SDS011;9907;42.676;26.348;2022-11-20T01:33:38;7.50;;;3.87;;
19525;SDS011;9907;42.676;26.348;2022-11-20T01:36:05;8.20;;;4.00;;
19525;SDS011;9907;42.676;26.348;2022-11-20T01:38:32;11.50;;;4.00;;
19525;SDS011;9907;42.676;26.348;2022-11-20T01:40:57;9.10;;;3.80;;
19525;SDS011;9907;42.676;26.348;2022-11-20T01:43:23;11.07;;;3.87;;
19525;SDS011;9907;42.676;26.348;2022-11-20T01:48:25;10.60;;;4.37;;
19525;SDS011;9907;42.676;26.348;2022-11-20T01:50:55;9.93;;;4.07;;
19525;SDS011;9907;42.676;26.348;2022-11-20T01:53:24;14.10;;;4.97;;
19525;SDS011;9907;42.676;26.348;2022-11-20T01:55:53;7.50;;;3.23;;
19525;SDS011;9907;42.676;26.348;2022-11-20T01:58:22;8.53;;;3.40;;
19525;SDS011;9907;42.676;26.348;2022-11-20T02:00:53;12.47;;;3.50;;
19525;SDS011;9907;42.676;26.348;2022-11-20T02:03:19;11.07;;;3.70;;
19525;SDS011;9907;42.676;26.348;2022-11-20T02:05:55;9.73;;;3.30;;
19525;SDS011;9907;42.676;26.348;2022-11-20T02:08:24;7.47;;;3.40;;
19525;SDS011;9907;42.676;26.348;2022-11-20T02:10:50;11.83;;;3.87;;
19525;SDS011;9907;42.676;26.348;2022-11-20T02:13:15;9.00;;;3.63;;
19525;SDS011;9907;42.676;26.348;2022-11-20T02:15:59;9.30;;;3.20;;
19525;SDS011;9907;42.676;26.348;2022-11-20T02:18:26;8.33;;;3.67;;
19525;SDS011;9907;42.676;26.348;2022-11-20T02:20:56;6.17;;;3.43;;
19525;SDS011;9907;42.676;26.348;2022-11-20T02:23:49;11.77;;;3.50;;
19525;SDS011;9907;42.676;26.348;2022-11-20T02:26:19;11.70;;;3.43;;
19525;SDS011;9907;42.676;26.348;2022-11-20T02:28:45;7.73;;;3.63;;
19525;SDS011;9907;42.676;26.348;2022-11-20T02:31:11;15.20;;;4.03;;
19525;SDS011;9907;42.676;26.348;2022-11-20T02:33:37;12.93;;;3.67;;
19525;SDS011;9907;42.676;26.348;2022-11-20T02:36:02;9.97;;;4.17;;
19525;SDS011;9907;42.676;26.348;2022-11-20T02:38:28;12.63;;;4.17;;
19525;SDS011;9907;42.676;26.348;2022-11-20T02:40:53;13.27;;;3.10;;
19525;SDS011;9907;42.676;26.348;2022-11-20T02:43:19;12.30;;;4.33;;
19525;SDS011;9907;42.676;26.348;2022-11-20T02:45:44;8.43;;;3.50;;
19525;SDS011;9907;42.676;26.348;2022-11-20T02:48:10;17.40;;;3.30;;
19525;SDS011;9907;42.676;26.348;2022-11-20T02:50:38;8.73;;;3.27;;
19525;SDS011;9907;42.676;26.348;2022-11-20T02:53:04;11.00;;;3.37;;
19525;SDS011;9907;42.676;26.348;2022-11-20T02:55:30;11.03;;;3.20;;
19525;SDS011;9907;42.676;26.348;2022-11-20T02:57:56;9.80;;;3.47;;
19525;SDS011;9907;42.676;26.348;2022-11-20T03:00:21;10.90;;;3.93;;
19525;SDS011;9907;42.676;26.348;2022-11-20T03:02:47;7.10;;;3.03;;
19525;SDS011;9907;42.676;26.348;2022-11-20T03:05:12;5.87;;;3.10;;
19525;SDS011;9907;42.676;26.348;2022-11-20T03:07:38;7.53;;;2.80;;
19525;SDS011;9907;42.676;26.348;2022-11-20T03:10:04;6.37;;;2.93;;
19525;SDS011;9907;42.676;26.348;2022-11-20T03:12:29;9.37;;;3.03;;
19525;SDS011;9907;42.676;26.348;2022-11-20T03:14:55;6.67;;;2.83;;
19525;SDS011;9907;42.676;26.348;2022-11-20T03:17:20;6.20;;;2.93;;
19525;SDS011;9907;42.676;26.348;2022-11-20T03:19:46;12.47;;;3.13;;
19525;SDS011;9907;42.676;26.348;2022-11-20T03:22:11;6.70;;;3.23;;
19525;SDS011;9907;42.676;26.348;2022-11-20T03:24:37;9.33;;;3.60;;
19525;SDS011;9907;42.676;26.348;2022-11-20T03:27:02;10.70;;;3.53;;
19525;SDS011;9907;42.676;26.348;2022-11-20T03:29:28;5.53;;;2.53;;
19525;SDS011;9907;42.676;26.348;2022-11-20T03:31:53;11.43;;;3.13;;
19525;SDS011;9907;42.676;26.348;2022-11-20T03:34:19;6.90;;;3.10;;
19525;SDS011;9907;42.676;26.348;2022-11-20T03:36:45;7.40;;;2.97;;
19525;SDS011;9907;42.676;26.348;2022-11-20T03:39:10;8.40;;;3.23;;
19525;SDS011;9907;42.676;26.348;2022-11-20T03:41:37;8.57;;;2.80;;
19525;SDS011;9907;42.676;26.348;2022-11-20T03:44:05;7.03;;;2.70;;
19525;SDS011;9907;42.676;26.348;2022-11-20T03:46:32;7.00;;;2.63;;
19525;SDS011;9907;42.676;26.348;2022-11-20T03:48:58;8.70;;;3.60;;
19525;SDS011;9907;42.676;26.348;2022-11-20T03:51:24;8.13;;;2.77;;
19525;SDS011;9907;42.676;26.348;2022-11-20T03:53:50;7.90;;;2.90;;
19525;SDS011;9907;42.676;26.348;2022-11-20T03:56:19;7.13;;;3.07;;
19525;SDS011;9907;42.676;26.348;2022-11-20T03:58:47;8.13;;;2.83;;
19525;SDS011;9907;42.676;26.348;2022-11-20T04:01:15;7.93;;;3.10;;
19525;SDS011;9907;42.676;26.348;2022-11-20T04:03:42;8.70;;;2.40;;
19525;SDS011;9907;42.676;26.348;2022-11-20T04:06:10;6.67;;;2.83;;
19525;SDS011;9907;42.676;26.348;2022-11-20T04:08:38;7.20;;;3.03;;
19525;SDS011;9907;42.676;26.348;2022-11-20T04:13:35;7.63;;;2.70;;
19525;SDS011;9907;42.676;26.348;2022-11-20T04:16:01;6.07;;;2.77;;
19525;SDS011;9907;42.676;26.348;2022-11-20T04:18:26;8.60;;;2.60;;
19525;SDS011;9907;42.676;26.348;2022-11-20T04:20:52;4.70;;;2.40;;
19525;SDS011;9907;42.676;26.348;2022-11-20T04:23:17;6.73;;;2.80;;
19525;SDS011;9907;42.676;26.348;2022-11-20T04:25:43;6.30;;;2.80;;
19525;SDS011;9907;42.676;26.348;2022-11-20T04:28:08;10.13;;;2.77;;
19525;SDS011;9907;42.676;26.348;2022-11-20T04:30:34;11.10;;;3.90;;
19525;SDS011;9907;42.676;26.348;2022-11-20T04:32:59;6.93;;;2.67;;
19525;SDS011;9907;42.676;26.348;2022-11-20T04:35:25;8.40;;;3.30;;
19525;SDS011;9907;42.676;26.348;2022-11-20T04:37:51;6.77;;;2.77;;
19525;SDS011;9907;42.676;26.348;2022-11-20T04:40:17;7.57;;;2.70;;
19525;SDS011;9907;42.676;26.348;2022-11-20T04:42:42;8.97;;;2.83;;
19525;SDS011;9907;42.676;26.348;2022-11-20T04:45:08;10.13;;;2.80;;
19525;SDS011;9907;42.676;26.348;2022-11-20T04:47:33;7.37;;;3.00;;
19525;SDS011;9907;42.676;26.348;2022-11-20T04:49:59;9.43;;;3.50;;
19525;SDS011;9907;42.676;26.348;2022-11-20T04:52:24;7.03;;;3.00;;
19525;SDS011;9907;42.676;26.348;2022-11-20T04:54:50;11.90;;;3.70;;
19525;SDS011;9907;42.676;26.348;2022-11-20T04:57:17;8.00;;;2.97;;
19525;SDS011;9907;42.676;26.348;2022-11-20T04:59:43;8.97;;;2.80;;
19525;SDS011;9907;42.676;26.348;2022-11-20T05:02:09;7.93;;;3.13;;
19525;SDS011;9907;42.676;26.348;2022-11-20T05:04:35;10.23;;;3.50;;
19525;SDS011;9907;42.676;26.348;2022-11-20T05:07:00;5.80;;;2.53;;
19525;SDS011;9907;42.676;26.348;2022-11-20T05:09:26;9.07;;;3.00;;
19525;SDS011;9907;42.676;26.348;2022-11-20T05:11:51;10.73;;;3.10;;
19525;SDS011;9907;42.676;26.348;2022-11-20T05:14:17;9.33;;;3.20;;
19525;SDS011;9907;42.676;26.348;2022-11-20T05:16:42;8.73;;;3.53;;
19525;SDS011;9907;42.676;26.348;2022-11-20T05:19:08;5.43;;;2.50;;
19525;SDS011;9907;42.676;26.348;2022-11-20T05:21:33;8.43;;;3.13;;
19525;SDS011;9907;42.676;26.348;2022-11-20T05:23:59;6.43;;;3.10;;
19525;SDS011;9907;42.676;26.348;2022-11-20T05:26:24;9.17;;;3.90;;
19525;SDS011;9907;42.676;26.348;2022-11-20T05:28:50;11.50;;;4.03;;
19525;SDS011;9907;42.676;26.348;2022-11-20T05:31:17;8.17;;;4.27;;
19525;SDS011;9907;42.676;26.348;2022-11-20T05:33:44;5.63;;;2.63;;
19525;SDS011;9907;42.676;26.348;2022-11-20T05:36:11;12.30;;;3.80;;
19525;SDS011;9907;42.676;26.348;2022-11-20T05:38:38;9.90;;;4.07;;
19525;SDS011;9907;42.676;26.348;2022-11-20T05:43:31;8.83;;;3.73;;
19525;SDS011;9907;42.676;26.348;2022-11-20T05:45:58;8.13;;;3.47;;
19525;SDS011;9907;42.676;26.348;2022-11-20T05:48:24;7.43;;;3.10;;
19525;SDS011;9907;42.676;26.348;2022-11-20T05:50:50;8.93;;;3.27;;
19525;SDS011;9907;42.676;26.348;2022-11-20T05:53:15;9.73;;;2.93;;
19525;SDS011;9907;42.676;26.348;2022-11-20T05:55:41;10.03;;;3.40;;
19525;SDS011;9907;42.676;26.348;2022-11-20T05:58:06;10.50;;;3.67;;
19525;SDS011;9907;42.676;26.348;2022-11-20T06:00:32;9.77;;;3.20;;
19525;SDS011;9907;42.676;26.348;2022-11-20T06:02:57;9.70;;;3.23;;
19525;SDS011;9907;42.676;26.348;2022-11-20T06:05:23;6.97;;;3.03;;
19525;SDS011;9907;42.676;26.348;2022-11-20T06:07:48;10.90;;;3.50;;
19525;SDS011;9907;42.676;26.348;2022-11-20T06:10:13;9.63;;;4.33;;
19525;SDS011;9907;42.676;26.348;2022-11-20T06:12:39;9.27;;;3.73;;
19525;SDS011;9907;42.676;26.348;2022-11-20T06:15:05;7.70;;;3.53;;
19525;SDS011;9907;42.676;26.348;2022-11-20T06:17:30;13.03;;;4.13;;
19525;SDS011;9907;42.676;26.348;2022-11-20T06:19:56;10.10;;;3.20;;
19525;SDS011;9907;42.676;26.348;2022-11-20T06:22:21;13.83;;;4.43;;
19525;SDS011;9907;42.676;26.348;2022-11-20T06:24:47;9.10;;;3.70;;
19525;SDS011;9907;42.676;26.348;2022-11-20T06:27:12;12.23;;;3.83;;
19525;SDS011;9907;42.676;26.348;2022-11-20T06:29:38;9.77;;;3.27;;
19525;SDS011;9907;42.676;26.348;2022-11-20T06:32:03;9.50;;;4.03;;
19525;SDS011;9907;42.676;26.348;2022-11-20T06:34:29;9.77;;;4.23;;
19525;SDS011;9907;42.676;26.348;2022-11-20T06:36:54;10.73;;;4.40;;
19525;SDS011;9907;42.676;26.348;2022-11-20T06:39:20;12.33;;;3.70;;
19525;SDS011;9907;42.676;26.348;2022-11-20T06:41:45;8.57;;;3.67;;
19525;SDS011;9907;42.676;26.348;2022-11-20T06:44:10;9.83;;;3.73;;
19525;SDS011;9907;42.676;26.348;2022-11-20T06:46:36;12.10;;;4.10;;
19525;SDS011;9907;42.676;26.348;2022-11-20T06:49:01;12.80;;;5.20;;
19525;SDS011;9907;42.676;26.348;2022-11-20T06:51:27;10.10;;;3.77;;
19525;SDS011;9907;42.676;26.348;2022-11-20T06:53:53;9.77;;;4.13;;
19525;SDS011;9907;42.676;26.348;2022-11-20T06:56:18;9.10;;;3.10;;
19525;SDS011;9907;42.676;26.348;2022-11-20T06:58:44;16.87;;;4.10;;
19525;SDS011;9907;42.676;26.348;2022-11-20T07:01:10;8.13;;;3.33;;
19525;SDS011;9907;42.676;26.348;2022-11-20T07:03:37;11.03;;;4.13;;
19525;SDS011;9907;42.676;26.348;2022-11-20T07:06:03;10.50;;;3.87;;
19525;SDS011;9907;42.676;26.348;2022-11-20T07:08:29;10.07;;;4.27;;
19525;SDS011;9907;42.676;26.348;2022-11-20T07:11:02;10.20;;;3.80;;
19525;SDS011;9907;42.676;26.348;2022-11-20T07:13:29;8.40;;;3.80;;
19525;SDS011;9907;42.676;26.348;2022-11-20T07:15:58;9.90;;;4.23;;
19525;SDS011;9907;42.676;26.348;2022-11-20T07:18:26;10.50;;;4.77;;
19525;SDS011;9907;42.676;26.348;2022-11-20T07:20:51;10.33;;;4.70;;
19525;SDS011;9907;42.676;26.348;2022-11-20T07:23:18;11.23;;;4.97;;
19525;SDS011;9907;42.676;26.348;2022-11-20T07:25:43;14.90;;;5.57;;
19525;SDS011;9907;42.676;26.348;2022-11-20T07:28:09;17.37;;;4.90;;
19525;SDS011;9907;42.676;26.348;2022-11-20T07:30:35;10.53;;;5.03;;
19525;SDS011;9907;42.676;26.348;2022-11-20T07:33:01;15.37;;;4.17;;
19525;SDS011;9907;42.676;26.348;2022-11-20T07:35:26;9.87;;;3.87;;
19525;SDS011;9907;42.676;26.348;2022-11-20T07:37:52;8.07;;;3.00;;
19525;SDS011;9907;42.676;26.348;2022-11-20T07:40:17;10.60;;;3.20;;
19525;SDS011;9907;42.676;26.348;2022-11-20T07:42:47;11.17;;;3.30;;
19525;SDS011;9907;42.676;26.348;2022-11-20T07:45:17;12.67;;;3.10;;
19525;SDS011;9907;42.676;26.348;2022-11-20T07:47:43;9.47;;;3.50;;
19525;SDS011;9907;42.676;26.348;2022-11-20T07:50:09;12.97;;;3.87;;
19525;SDS011;9907;42.676;26.348;2022-11-20T07:52:35;11.23;;;4.20;;
19525;SDS011;9907;42.676;26.348;2022-11-20T07:55:00;14.00;;;5.53;;
19525;SDS011;9907;42.676;26.348;2022-11-20T07:57:26;7.87;;;4.30;;
19525;SDS011;9907;42.676;26.348;2022-11-20T07:59:51;8.07;;;3.50;;
19525;SDS011;9907;42.676;26.348;2022-11-20T08:02:17;12.40;;;4.50;;
19525;SDS011;9907;42.676;26.348;2022-11-20T08:04:42;11.63;;;5.07;;
19525;SDS011;9907;42.676;26.348;2022-11-20T08:07:07;10.60;;;4.63;;
19525;SDS011;9907;42.676;26.348;2022-11-20T08:09:33;10.93;;;4.30;;
19525;SDS011;9907;42.676;26.348;2022-11-20T08:11:58;13.13;;;5.27;;
19525;SDS011;9907;42.676;26.348;2022-11-20T08:14:42;13.07;;;4.77;;
19525;SDS011;9907;42.676;26.348;2022-11-20T08:17:08;12.17;;;5.07;;
19525;SDS011;9907;42.676;26.348;2022-11-20T08:19:33;15.20;;;5.20;;
19525;SDS011;9907;42.676;26.348;2022-11-20T08:21:59;11.63;;;5.40;;
19525;SDS011;9907;42.676;26.348;2022-11-20T08:24:24;13.50;;;5.17;;
19525;SDS011;9907;42.676;26.348;2022-11-20T08:26:51;12.00;;;4.83;;
19525;SDS011;9907;42.676;26.348;2022-11-20T08:29:17;13.80;;;5.30;;
19525;SDS011;9907;42.676;26.348;2022-11-20T08:31:42;17.57;;;9.00;;
19525;SDS011;9907;42.676;26.348;2022-11-20T08:34:08;23.83;;;11.83;;
19525;SDS011;9907;42.676;26.348;2022-11-20T08:36:33;24.27;;;14.57;;
19525;SDS011;9907;42.676;26.348;2022-11-20T08:39:00;18.47;;;9.00;;
19525;SDS011;9907;42.676;26.348;2022-11-20T08:41:25;15.13;;;6.73;;
19525;SDS011;9907;42.676;26.348;2022-11-20T08:43:59;10.50;;;5.40;;
19525;SDS011;9907;42.676;26.348;2022-11-20T08:46:28;9.37;;;4.27;;
19525;SDS011;9907;42.676;26.348;2022-11-20T08:49:07;10.00;;;4.37;;
19525;SDS011;9907;42.676;26.348;2022-11-20T08:51:35;11.77;;;5.33;;
19525;SDS011;9907;42.676;26.348;2022-11-20T08:54:01;12.27;;;3.63;;
19525;SDS011;9907;42.676;26.348;2022-11-20T08:56:27;11.30;;;4.07;;
19525;SDS011;9907;42.676;26.348;2022-11-20T08:58:53;14.70;;;4.13;;
19525;SDS011;9907;42.676;26.348;2022-11-20T09:01:19;12.40;;;3.93;;
19525;SDS011;9907;42.676;26.348;2022-11-20T09:03:45;11.97;;;4.33;;
19525;SDS011;9907;42.676;26.348;2022-11-20T09:06:11;12.23;;;4.00;;
19525;SDS011;9907;42.676;26.348;2022-11-20T09:08:37;15.20;;;3.73;;
19525;SDS011;9907;42.676;26.348;2022-11-20T09:11:02;15.10;;;4.70;;
19525;SDS011;9907;42.676;26.348;2022-11-20T09:13:29;10.60;;;3.67;;
19525;SDS011;9907;42.676;26.348;2022-11-20T09:15:55;8.43;;;3.67;;
19525;SDS011;9907;42.676;26.348;2022-11-20T09:18:22;13.80;;;4.50;;
19525;SDS011;9907;42.676;26.348;2022-11-20T09:20:49;15.47;;;3.70;;
19525;SDS011;9907;42.676;26.348;2022-11-20T09:23:15;16.30;;;4.90;;
19525;SDS011;9907;42.676;26.348;2022-11-20T09:25:41;11.67;;;4.50;;
19525;SDS011;9907;42.676;26.348;2022-11-20T09:28:07;23.00;;;9.83;;
19525;SDS011;9907;42.676;26.348;2022-11-20T09:30:32;27.10;;;13.40;;
19525;SDS011;9907;42.676;26.348;2022-11-20T09:32:58;14.47;;;6.83;;
19525;SDS011;9907;42.676;26.348;2022-11-20T09:35:23;16.87;;;5.90;;
19525;SDS011;9907;42.676;26.348;2022-11-20T09:37:49;10.53;;;5.73;;
19525;SDS011;9907;42.676;26.348;2022-11-20T09:40:21;14.60;;;7.17;;
19525;SDS011;9907;42.676;26.348;2022-11-20T09:45:47;22.57;;;8.13;;
19525;SDS011;9907;42.676;26.348;2022-11-20T09:56:20;12.73;;;4.33;;
19525;SDS011;9907;42.676;26.348;2022-11-20T09:58:50;11.50;;;6.20;;
19525;SDS011;9907;42.676;26.348;2022-11-20T10:01:18;14.37;;;5.20;;
19525;SDS011;9907;42.676;26.348;2022-11-20T10:06:17;17.30;;;5.70;;
19525;SDS011;9907;42.676;26.348;2022-11-20T10:08:55;14.80;;;4.63;;
19525;SDS011;9907;42.676;26.348;2022-11-20T10:24:55;12.77;;;5.63;;
19525;SDS011;9907;42.676;26.348;2022-11-20T10:30:14;17.60;;;5.90;;
19525;SDS011;9907;42.676;26.348;2022-11-20T10:33:01;11.00;;;4.03;;
19525;SDS011;9907;42.676;26.348;2022-11-20T10:38:00;13.47;;;4.03;;
19525;SDS011;9907;42.676;26.348;2022-11-20T10:40:32;15.30;;;6.80;;
19525;SDS011;9907;42.676;26.348;2022-11-20T10:43:19;17.57;;;7.03;;
19525;SDS011;9907;42.676;26.348;2022-11-20T10:46:10;13.17;;;5.97;;
19525;SDS011;9907;42.676;26.348;2022-11-20T10:48:43;14.03;;;5.73;;
19525;SDS011;9907;42.676;26.348;2022-11-20T10:56:57;12.20;;;4.20;;
19525;SDS011;9907;42.676;26.348;2022-11-20T11:02:15;14.43;;;4.60;;
19525;SDS011;9907;42.676;26.348;2022-11-20T11:04:46;15.73;;;4.60;;
19525;SDS011;9907;42.676;26.348;2022-11-20T11:07:47;14.77;;;4.90;;
19525;SDS011;9907;42.676;26.348;2022-11-20T11:10:14;18.97;;;5.30;;
19525;SDS011;9907;42.676;26.348;2022-11-20T11:13:00;18.37;;;5.70;;
19525;SDS011;9907;42.676;26.348;2022-11-20T11:15:35;19.57;;;5.87;;
19525;SDS011;9907;42.676;26.348;2022-11-20T11:18:03;18.67;;;6.50;;
19525;SDS011;9907;42.676;26.348;2022-11-20T11:20:29;17.97;;;6.33;;
19525;SDS011;9907;42.676;26.348;2022-11-20T11:22:58;27.67;;;8.50;;
19525;SDS011;9907;42.676;26.348;2022-11-20T11:25:28;16.27;;;6.10;;
19525;SDS011;9907;42.676;26.348;2022-11-20T11:28:03;17.57;;;6.13;;
19525;SDS011;9907;42.676;26.348;2022-11-20T11:30:51;11.17;;;5.03;;
19525;SDS011;9907;42.676;26.348;2022-11-20T11:33:21;20.43;;;6.03;;
19525;SDS011;9907;42.676;26.348;2022-11-20T11:35:52;20.80;;;6.50;;
19525;SDS011;9907;42.676;26.348;2022-11-20T11:38:38;19.67;;;7.00;;
19525;SDS011;9907;42.676;26.348;2022-11-20T11:41:06;21.07;;;6.87;;
19525;SDS011;9907;42.676;26.348;2022-11-20T11:43:35;18.57;;;6.90;;
19525;SDS011;9907;42.676;26.348;2022-11-20T11:46:33;19.30;;;6.70;;
19525;SDS011;9907;42.676;26.348;2022-11-20T11:52:20;23.83;;;8.43;;
19525;SDS011;9907;42.676;26.348;2022-11-20T12:07:42;24.57;;;7.83;;
19525;SDS011;9907;42.676;26.348;2022-11-20T12:16:05;21.23;;;5.97;;
19525;SDS011;9907;42.676;26.348;2022-11-20T12:18:34;19.20;;;5.97;;
19525;SDS011;9907;42.676;26.348;2022-11-20T12:32:22;21.57;;;5.33;;
19525;SDS011;9907;42.676;26.348;2022-11-20T12:37:57;22.23;;;6.30;;
19525;SDS011;9907;42.676;26.348;2022-11-20T12:43:34;19.03;;;6.47;;
19525;SDS011;9907;42.676;26.348;2022-11-20T13:07:52;23.53;;;5.37;;
19525;SDS011;9907;42.676;26.348;2022-11-20T13:10:42;26.60;;;6.27;;
19525;SDS011;9907;42.676;26.348;2022-11-20T13:13:54;22.93;;;6.80;;
19525;SDS011;9907;42.676;26.348;2022-11-20T13:16:08;17.90;;;5.70;;
19525;SDS011;9907;42.676;26.348;2022-11-20T13:18:43;21.30;;;5.37;;
19525;SDS011;9907;42.676;26.348;2022-11-20T13:21:14;16.73;;;6.00;;
19525;SDS011;9907;42.676;26.348;2022-11-20T13:23:42;23.57;;;6.30;;
19525;SDS011;9907;42.676;26.348;2022-11-20T13:26:15;24.13;;;6.80;;
19525;SDS011;9907;42.676;26.348;2022-11-20T13:28:47;15.13;;;5.13;;
19525;SDS011;9907;42.676;26.348;2022-11-20T13:31:30;29.37;;;5.80;;
19525;SDS011;9907;42.676;26.348;2022-11-20T13:34:00;25.90;;;5.17;;
19525;SDS011;9907;42.676;26.348;2022-11-20T13:36:30;22.47;;;5.27;;
19525;SDS011;9907;42.676;26.348;2022-11-20T13:39:02;16.00;;;4.80;;
19525;SDS011;9907;42.676;26.348;2022-11-20T13:41:35;19.40;;;5.60;;
19525;SDS011;9907;42.676;26.348;2022-11-20T13:44:12;22.07;;;5.63;;
19525;SDS011;9907;42.676;26.348;2022-11-20T13:46:41;17.60;;;5.37;;
19525;SDS011;9907;42.676;26.348;2022-11-20T13:49:27;22.57;;;5.70;;
19525;SDS011;9907;42.676;26.348;2022-11-20T13:51:57;22.20;;;5.50;;
19525;SDS011;9907;42.676;26.348;2022-11-20T14:02:40;21.57;;;5.83;;
19525;SDS011;9907;42.676;26.348;2022-11-20T14:05:11;22.80;;;5.73;;
19525;SDS011;9907;42.676;26.348;2022-11-20T14:07:44;25.13;;;7.60;;
19525;SDS011;9907;42.676;26.348;2022-11-20T14:10:24;22.07;;;6.37;;
19525;SDS011;9907;42.676;26.348;2022-11-20T14:12:51;23.20;;;7.43;;
19525;SDS011;9907;42.676;26.348;2022-11-20T14:15:56;24.83;;;7.93;;
19525;SDS011;9907;42.676;26.348;2022-11-20T14:18:12;23.30;;;6.10;;
19525;SDS011;9907;42.676;26.348;2022-11-20T14:20:46;27.73;;;8.43;;
19525;SDS011;9907;42.676;26.348;2022-11-20T14:23:12;23.27;;;8.87;;
19525;SDS011;9907;42.676;26.348;2022-11-20T14:25:41;24.87;;;7.83;;
19525;SDS011;9907;42.676;26.348;2022-11-20T14:28:11;24.70;;;7.13;;
19525;SDS011;9907;42.676;26.348;2022-11-20T14:30:46;26.23;;;7.10;;
19525;SDS011;9907;42.676;26.348;2022-11-20T14:33:13;29.60;;;7.87;;
19525;SDS011;9907;42.676;26.348;2022-11-20T14:35:58;29.83;;;8.87;;
19525;SDS011;9907;42.676;26.348;2022-11-20T14:38:25;34.37;;;10.17;;
19525;SDS011;9907;42.676;26.348;2022-11-20T14:40:52;30.17;;;8.67;;
19525;SDS011;9907;42.676;26.348;2022-11-20T14:43:27;22.50;;;8.80;;
19525;SDS011;9907;42.676;26.348;2022-11-20T14:46:07;27.27;;;8.67;;
19525;SDS011;9907;42.676;26.348;2022-11-20T14:48:38;22.67;;;7.13;;
19525;SDS011;9907;42.676;26.348;2022-11-20T14:51:04;26.80;;;7.50;;
19525;SDS011;9907;42.676;26.348;2022-11-20T14:53:29;27.97;;;7.80;;
19525;SDS011;9907;42.676;26.348;2022-11-20T14:55:56;26.57;;;7.80;;
19525;SDS011;9907;42.676;26.348;2022-11-20T14:58:27;25.27;;;7.43;;
19525;SDS011;9907;42.676;26.348;2022-11-20T15:01:02;31.20;;;7.50;;
19525;SDS011;9907;42.676;26.348;2022-11-20T15:03:39;18.67;;;6.53;;
19525;SDS011;9907;42.676;26.348;2022-11-20T15:06:06;31.13;;;8.47;;
19525;SDS011;9907;42.676;26.348;2022-11-20T15:08:36;23.03;;;7.07;;
19525;SDS011;9907;42.676;26.348;2022-11-20T15:11:01;27.57;;;7.80;;
19525;SDS011;9907;42.676;26.348;2022-11-20T15:13:37;29.30;;;7.77;;
19525;SDS011;9907;42.676;26.348;2022-11-20T15:16:08;22.90;;;7.60;;
19525;SDS011;9907;42.676;26.348;2022-11-20T15:18:54;24.10;;;7.10;;
19525;SDS011;9907;42.676;26.348;2022-11-20T15:21:20;25.70;;;7.00;;
19525;SDS011;9907;42.676;26.348;2022-11-20T15:23:46;25.57;;;6.97;;
19525;SDS011;9907;42.676;26.348;2022-11-20T15:26:12;28.13;;;7.20;;
19525;SDS011;9907;42.676;26.348;2022-11-20T15:28:40;21.10;;;5.47;;
19525;SDS011;9907;42.676;26.348;2022-11-20T15:31:13;26.93;;;6.30;;
19525;SDS011;9907;42.676;26.348;2022-11-20T15:33:41;24.20;;;6.70;;
19525;SDS011;9907;42.676;26.348;2022-11-20T15:36:10;15.23;;;5.57;;
19525;SDS011;9907;42.676;26.348;2022-11-20T15:38:36;17.50;;;5.90;;
19525;SDS011;9907;42.676;26.348;2022-11-20T15:41:02;22.23;;;5.97;;
19525;SDS011;9907;42.676;26.348;2022-11-20T15:43:27;24.03;;;6.37;;
19525;SDS011;9907;42.676;26.348;2022-11-20T15:45:53;25.90;;;6.07;;
19525;SDS011;9907;42.676;26.348;2022-11-20T15:51:33;20.93;;;5.07;;
19525;SDS011;9907;42.676;26.348;2022-11-20T15:53:47;25.97;;;6.23;;
19525;SDS011;9907;42.676;26.348;2022-11-20T15:56:12;22.20;;;5.73;;
19525;SDS011;9907;42.676;26.348;2022-11-20T15:58:38;22.87;;;5.53;;
19525;SDS011;9907;42.676;26.348;2022-11-20T16:01:04;18.03;;;6.10;;
19525;SDS011;9907;42.676;26.348;2022-11-20T16:03:30;20.30;;;5.90;;
19525;SDS011;9907;42.676;26.348;2022-11-20T16:05:56;22.33;;;5.43;;
19525;SDS011;9907;42.676;26.348;2022-11-20T16:08:21;20.20;;;5.80;;
19525;SDS011;9907;42.676;26.348;2022-11-20T16:10:47;24.57;;;6.50;;
19525;SDS011;9907;42.676;26.348;2022-11-20T16:13:13;23.93;;;5.97;;
19525;SDS011;9907;42.676;26.348;2022-11-20T16:15:59;28.93;;;5.73;;
19525;SDS011;9907;42.676;26.348;2022-11-20T16:18:27;19.40;;;6.37;;
19525;SDS011;9907;42.676;26.348;2022-11-20T16:20:53;28.17;;;6.40;;
19525;SDS011;9907;42.676;26.348;2022-11-20T16:23:20;30.00;;;7.67;;
19525;SDS011;9907;42.676;26.348;2022-11-20T16:25:46;27.57;;;7.87;;
19525;SDS011;9907;42.676;26.348;2022-11-20T16:28:12;21.77;;;5.97;;
19525;SDS011;9907;42.676;26.348;2022-11-20T16:30:37;24.77;;;6.20;;
19525;SDS011;9907;42.676;26.348;2022-11-20T16:33:04;29.93;;;6.93;;
19525;SDS011;9907;42.676;26.348;2022-11-20T16:35:36;25.63;;;6.63;;
19525;SDS011;9907;42.676;26.348;2022-11-20T16:38:02;28.23;;;6.10;;
19525;SDS011;9907;42.676;26.348;2022-11-20T16:40:28;26.63;;;6.90;;
19525;SDS011;9907;42.676;26.348;2022-11-20T16:42:53;23.87;;;6.90;;
19525;SDS011;9907;42.676;26.348;2022-11-20T16:45:19;27.00;;;7.00;;
19525;SDS011;9907;42.676;26.348;2022-11-20T16:47:45;21.87;;;7.23;;
19525;SDS011;9907;42.676;26.348;2022-11-20T16:50:10;30.40;;;6.67;;